Time;durP1;ratioP1;P1;durP2;ratioP2;P2;SDS_P1;SDS_P2;PMS_P1;PMS_P2;Temp;Humidity;BMP_temperature;BMP_pressure;BME280_temperature;BME280_humidity;BME280_pressure;Samples;Min_cycle;Max_cycle;Signal;HPM_P1;HPM_P2
2023/01/30 00:01:27;;;;;;;6.45;4.93;;;4.40;64.60;;;;;;5072281;28;20439;-69
2023/01/30 00:03:52;;;;;;;7.03;5.20;;;4.40;64.60;;;;;;5072482;28;20362;-67
2023/01/30 00:06:19;;;;;;;7.25;5.13;;;4.30;64.50;;;;;;5073409;28;20051;-69
2023/01/30 00:08:44;;;;;;;7.13;5.22;;;4.40;64.50;;;;;;5074229;28;20027;-69
2023/01/30 00:11:12;;;;;;;7.45;5.28;;;4.30;64.50;;;;;;5073335;28;20413;-69
2023/01/30 00:13:39;;;;;;;7.32;5.60;;;4.40;64.50;;;;;;5072193;28;20032;-69
2023/01/30 00:16:06;;;;;;;6.85;5.13;;;4.40;64.50;;;;;;5072224;28;20055;-70
2023/01/30 00:18:31;;;;;;;7.95;5.70;;;4.40;64.50;;;;;;5072162;28;20547;-70
2023/01/30 00:21:00;;;;;;;6.88;5.15;;;4.30;64.40;;;;;;5073390;28;20032;-68
2023/01/30 00:23:28;;;;;;;7.00;5.00;;;4.30;64.40;;;;;;5055986;28;20460;-68
2023/01/30 00:25:53;;;;;;;7.25;5.38;;;4.40;64.50;;;;;;5072208;28;20029;-69
2023/01/30 00:28:19;;;;;;;7.00;5.07;;;4.40;64.50;;;;;;5073318;28;20021;-69
2023/01/30 00:30:48;;;;;;;7.57;5.20;;;4.40;64.50;;;;;;5073170;28;20051;-68
2023/01/30 00:33:14;;;;;;;6.78;4.93;;;4.40;65.00;;;;;;5072102;28;20025;-69
2023/01/30 00:35:47;;;;;;;6.00;4.75;;;4.40;64.40;;;;;;5073447;28;20432;-69
2023/01/30 00:38:14;;;;;;;7.95;5.85;;;4.40;64.40;;;;;;5072614;28;20027;-69
2023/01/30 00:40:40;;;;;;;7.20;5.32;;;4.40;64.40;;;;;;5073252;28;20052;-68
2023/01/30 00:48:37;;;;;;;7.07;5.05;;;4.40;64.40;;;;;;5073605;28;20082;-69
2023/01/30 00:51:03;;;;;;;7.30;4.97;;;4.40;64.30;;;;;;5073484;28;20028;-69
2023/01/30 00:53:29;;;;;;;7.43;5.10;;;4.40;64.30;;;;;;5073098;28;20041;-69
2023/01/30 00:55:55;;;;;;;7.75;5.28;;;4.40;64.30;;;;;;5088696;28;20032;-70
2023/01/30 00:58:22;;;;;;;8.00;5.43;;;4.40;64.40;;;;;;5075407;28;20028;-70
2023/01/30 01:00:49;;;;;;;7.60;5.55;;;4.40;64.30;;;;;;5076038;28;20440;-69
2023/01/30 01:03:15;;;;;;;6.93;5.57;;;4.40;64.40;;;;;;5076903;28;20025;-69
2023/01/30 01:05:42;;;;;;;7.70;5.50;;;4.40;64.30;;;;;;5075506;28;20111;-69
2023/01/30 01:08:08;;;;;;;7.28;5.13;;;4.40;64.30;;;;;;5076894;28;20021;-69
2023/01/30 01:10:34;;;;;;;6.55;4.95;;;4.40;64.30;;;;;;5075081;28;20147;-69
2023/01/30 01:13:00;;;;;;;7.95;5.20;;;4.40;64.30;;;;;;5076529;28;20095;-70
2023/01/30 01:15:26;;;;;;;7.25;5.25;;;4.40;64.30;;;;;;5076785;28;20043;-69
2023/01/30 01:17:52;;;;;;;6.85;5.13;;;4.40;64.30;;;;;;5076622;28;20060;-68
2023/01/30 01:20:20;;;;;;;7.03;4.70;;;4.40;64.30;;;;;;5075104;28;20037;-70
2023/01/30 01:22:49;;;;;;;6.32;4.95;;;4.40;64.30;;;;;;5074679;28;20052;-70
2023/01/30 01:25:15;;;;;;;6.95;5.20;;;4.40;64.20;;;;;;5075079;28;20024;-70
2023/01/30 01:27:41;;;;;;;8.05;5.43;;;4.40;64.20;;;;;;5076066;28;20025;-69
2023/01/30 01:30:07;;;;;;;7.10;5.18;;;4.40;64.20;;;;;;5075311;28;20462;-70
2023/01/30 01:32:33;;;;;;;7.28;5.32;;;4.40;64.20;;;;;;5074975;28;20363;-69
2023/01/30 01:34:59;;;;;;;5.70;4.80;;;4.40;64.20;;;;;;5076280;28;20086;-69
2023/01/30 01:37:24;;;;;;;6.97;5.22;;;4.40;64.20;;;;;;5076382;28;20389;-69
2023/01/30 01:42:37;;;;;;;6.67;4.97;;;4.40;64.20;;;;;;5076018;28;20068;-69
2023/01/30 01:45:11;;;;;;;7.72;5.55;;;4.40;64.20;;;;;;5076408;28;20288;-70
2023/01/30 01:47:59;;;;;;;6.97;5.00;;;4.40;64.10;;;;;;5076152;28;20024;-69
2023/01/30 01:50:44;;;;;;;7.22;5.38;;;4.40;64.10;;;;;;5075553;28;20111;-69
2023/01/30 01:53:12;;;;;;;7.03;5.38;;;4.40;64.20;;;;;;5074835;28;20024;-69
2023/01/30 01:55:40;;;;;;;6.43;5.00;;;4.40;64.10;;;;;;5075991;28;20107;-69
2023/01/30 01:58:30;;;;;;;7.00;5.25;;;4.40;64.10;;;;;;5075841;28;20025;-69
2023/01/30 02:00:58;;;;;;;5.50;4.55;;;4.40;64.10;;;;;;5074458;28;20060;-70
2023/01/30 02:03:27;;;;;;;6.07;4.82;;;4.40;64.10;;;;;;5074644;28;20033;-68
2023/01/30 02:05:57;;;;;;;7.70;5.25;;;4.40;64.10;;;;;;5074791;28;20024;-69
2023/01/30 02:08:29;;;;;;;7.43;5.28;;;4.40;64.10;;;;;;5075669;28;20021;-69
2023/01/30 02:11:08;;;;;;;8.20;5.82;;;4.40;64.10;;;;;;5073771;28;20129;-69
2023/01/30 02:13:33;;;;;;;6.57;4.70;;;4.40;64.10;;;;;;5074185;28;20119;-69
2023/01/30 02:16:01;;;;;;;7.40;5.03;;;4.40;64.10;;;;;;5075715;28;20429;-68
2023/01/30 02:18:29;;;;;;;8.10;5.28;;;4.40;64.10;;;;;;5075384;28;20025;-68
2023/01/30 02:21:16;;;;;;;6.88;4.88;;;4.50;64.10;;;;;;5074016;28;20033;-69
2023/01/30 02:24:19;;;;;;;7.03;5.03;;;4.50;64.10;;;;;;5075591;28;20482;-69
2023/01/30 02:26:54;;;;;;;6.82;4.97;;;4.40;64.00;;;;;;5024747;28;20041;-69
2023/01/30 02:29:35;;;;;;;7.65;5.18;;;4.40;64.10;;;;;;5075481;28;20416;-69
2023/01/30 02:32:26;;;;;;;5.90;4.72;;;4.40;64.00;;;;;;5074989;28;20496;-69
2023/01/30 02:35:27;;;;;;;7.18;5.45;;;4.40;64.00;;;;;;5072182;28;20059;-69
2023/01/30 02:38:05;;;;;;;6.47;5.25;;;4.50;64.00;;;;;;5075162;28;20078;-69
2023/01/30 02:40:52;;;;;;;5.63;4.47;;;4.40;64.00;;;;;;5073823;28;20031;-69
2023/01/30 02:43:45;;;;;;;7.35;5.10;;;4.40;64.00;;;;;;5075264;28;20070;-69
2023/01/30 02:46:17;;;;;;;6.68;4.80;;;4.50;64.10;;;;;;5073763;28;20020;-69
2023/01/30 02:48:47;;;;;;;7.35;5.15;;;4.40;64.00;;;;;;5073567;28;20056;-70
2023/01/30 02:51:20;;;;;;;7.93;5.43;;;4.50;64.00;;;;;;5074626;28;20434;-69
2023/01/30 02:53:47;;;;;;;7.32;5.15;;;4.50;64.10;;;;;;5074865;28;20032;-68
2023/01/30 02:56:13;;;;;;;6.50;5.00;;;4.40;64.00;;;;;;5073402;28;20033;-68
2023/01/30 02:58:47;;;;;;;6.22;5.07;;;4.40;64.00;;;;;;5074498;28;20020;-68
2023/01/30 03:01:27;;;;;;;6.47;4.90;;;4.50;64.10;;;;;;5073341;28;20450;-69
2023/01/30 03:04:17;;;;;;;5.88;4.78;;;4.40;64.00;;;;;;5074871;28;20028;-68
2023/01/30 03:07:20;;;;;;;6.25;4.68;;;4.40;64.00;;;;;;5073125;28;20025;-70
2023/01/30 03:10:05;;;;;;;5.53;4.43;;;4.50;64.00;;;;;;5074193;28;20450;-69
2023/01/30 03:12:40;;;;;;;5.78;4.65;;;4.50;64.00;;;;;;5074812;28;20056;-70
2023/01/30 03:15:05;;;;;;;;;;;4.50;64.00;;;;;;5074916;28;20032;-69
2023/01/30 03:17:32;;;;;;;5.97;4.68;;;4.40;63.80;;;;;;5074240;28;19954;-69
2023/01/30 03:19:59;;;;;;;5.57;4.28;;;4.50;63.90;;;;;;5073842;28;20032;-70
2023/01/30 03:22:25;;;;;;;6.18;4.53;;;4.50;63.90;;;;;;5072658;28;20028;-69
2023/01/30 03:24:52;;;;;;;6.38;4.80;;;4.50;63.90;;;;;;5074237;28;20021;-69
2023/01/30 03:27:18;;;;;;;6.13;5.03;;;4.50;64.00;;;;;;5074268;28;20381;-69
2023/01/30 03:29:44;;;;;;;6.18;4.70;;;4.50;63.90;;;;;;5074101;28;20450;-69
2023/01/30 03:32:10;;;;;;;7.03;4.90;;;4.40;63.90;;;;;;5072675;28;20035;-70
2023/01/30 03:34:35;;;;;;;6.72;4.90;;;4.50;64.00;;;;;;5072774;28;20025;-69
2023/01/30 03:37:01;;;;;;;6.88;4.72;;;4.50;64.00;;;;;;5074383;28;20040;-69
2023/01/30 03:39:27;;;;;;;6.30;4.60;;;4.40;63.90;;;;;;5074093;28;20028;-68
2023/01/30 03:41:53;;;;;;;6.30;4.72;;;4.40;63.90;;;;;;5074548;28;20374;-68
2023/01/30 03:44:19;;;;;;;6.30;4.75;;;4.50;64.00;;;;;;5074210;28;20024;-69
2023/01/30 03:46:45;;;;;;;6.43;4.72;;;4.50;64.00;;;;;;5073879;28;20048;-69
2023/01/30 03:49:11;;;;;;;6.90;4.85;;;4.50;64.00;;;;;;5073776;28;20185;-69
2023/01/30 03:51:37;;;;;;;6.10;4.47;;;4.40;63.90;;;;;;5073569;28;20029;-69
2023/01/30 03:54:02;;;;;;;6.13;4.28;;;4.50;63.90;;;;;;5072690;28;20024;-69
2023/01/30 03:56:29;;;;;;;6.10;4.72;;;4.50;64.00;;;;;;5073657;28;20025;-70
2023/01/30 03:58:55;;;;;;;6.50;4.72;;;4.50;63.90;;;;;;5073574;28;20527;-69
2023/01/30 04:01:20;;;;;;;6.45;4.70;;;4.50;63.90;;;;;;5073603;28;20029;-69
2023/01/30 04:03:46;;;;;;;6.72;4.70;;;4.50;63.90;;;;;;5073474;28;20367;-69
2023/01/30 04:06:12;;;;;;;6.65;4.70;;;4.40;63.80;;;;;;5073782;28;20033;-68
2023/01/30 04:08:37;;;;;;;6.25;4.82;;;4.50;63.90;;;;;;5073837;28;20028;-69
2023/01/30 04:11:03;;;;;;;6.57;4.68;;;4.50;63.80;;;;;;5088950;28;20060;-71
2023/01/30 04:13:29;;;;;;;6.43;4.82;;;4.50;63.80;;;;;;5073772;28;20428;-70
2023/01/30 04:16:23;;;;;;;5.85;4.20;;;4.50;63.80;;;;;;5073476;28;20100;-69
2023/01/30 04:18:48;;;;;;;7.53;5.07;;;4.50;63.80;;;;;;5072419;28;20035;-69
2023/01/30 04:21:15;;;;;;;5.88;4.60;;;4.50;63.80;;;;;;5073060;28;20029;-69
2023/01/30 04:23:41;;;;;;;6.15;4.63;;;4.40;63.80;;;;;;5071950;28;20028;-69
2023/01/30 04:26:08;;;;;;;5.70;4.38;;;4.50;63.80;;;;;;5073873;28;20028;-70
2023/01/30 04:28:34;;;;;;;5.65;4.22;;;4.50;63.80;;;;;;5073286;28;20051;-69
2023/01/30 04:30:59;;;;;;;7.03;4.80;;;4.50;63.80;;;;;;5073138;28;20457;-69
2023/01/30 04:33:25;;;;;;;6.13;4.78;;;4.40;63.80;;;;;;5076278;28;20056;-69
2023/01/30 04:35:58;;;;;;;6.07;4.47;;;4.40;63.80;;;;;;5077591;28;20093;-69
2023/01/30 04:38:26;;;;;;;6.38;4.53;;;4.50;63.80;;;;;;5076627;28;20359;-70
2023/01/30 04:40:53;;;;;;;5.60;4.55;;;4.40;63.80;;;;;;5076014;28;20032;-69
2023/01/30 04:43:20;;;;;;;5.57;4.28;;;4.50;63.80;;;;;;5077146;28;20032;-70
2023/01/30 04:45:48;;;;;;;6.18;4.50;;;4.50;63.80;;;;;;5076004;28;20033;-69
2023/01/30 04:48:14;;;;;;;6.45;4.53;;;4.50;63.80;;;;;;5077468;28;20029;-69
2023/01/30 04:50:41;;;;;;;5.63;4.72;;;4.50;63.70;;;;;;5077143;28;20474;-69
2023/01/30 04:53:07;;;;;;;5.75;4.32;;;4.50;63.80;;;;;;5076989;28;20028;-69
2023/01/30 04:55:32;;;;;;;5.63;4.60;;;4.50;63.80;;;;;;5076993;28;20028;-70
2023/01/30 04:57:58;;;;;;;6.82;4.85;;;4.50;63.70;;;;;;5075606;28;20025;-70
2023/01/30 05:00:24;;;;;;;6.00;4.35;;;4.50;63.80;;;;;;5076695;28;20032;-68
2023/01/30 05:02:50;;;;;;;6.85;4.82;;;4.50;63.80;;;;;;5077016;28;20036;-69
2023/01/30 05:05:16;;;;;;;5.63;4.65;;;4.40;63.70;;;;;;5075765;28;20082;-69
2023/01/30 05:07:42;;;;;;;5.80;4.55;;;4.50;63.70;;;;;;5077067;28;20405;-69
2023/01/30 05:10:08;;;;;;;6.45;4.70;;;4.50;63.70;;;;;;5076533;28;20036;-70
2023/01/30 05:12:34;;;;;;;5.75;4.13;;;4.50;63.70;;;;;;5076275;28;20055;-70
2023/01/30 05:15:00;;;;;;;5.40;4.28;;;4.50;63.70;;;;;;5075373;28;20028;-69
2023/01/30 05:17:26;;;;;;;5.93;4.50;;;4.50;63.70;;;;;;5076596;28;20024;-69
2023/01/30 05:19:51;;;;;;;6.75;4.88;;;4.50;63.70;;;;;;5074907;28;20048;-69
2023/01/30 05:22:17;;;;;;;5.30;4.25;;;4.50;63.70;;;;;;5075463;28;20025;-70
2023/01/30 05:24:43;;;;;;;5.60;4.30;;;4.50;63.70;;;;;;5091293;28;20039;-70
2023/01/30 05:27:08;;;;;;;5.80;4.70;;;4.50;63.70;;;;;;5076185;28;20028;-70
2023/01/30 05:29:34;;;;;;;5.75;4.57;;;4.50;63.70;;;;;;5076302;28;20025;-70
2023/01/30 05:31:59;;;;;;;5.50;4.25;;;4.50;63.70;;;;;;5075082;28;20033;-70
2023/01/30 05:34:25;;;;;;;6.25;4.38;;;4.50;63.60;;;;;;5075518;28;20458;-68
2023/01/30 05:36:51;;;;;;;5.22;4.15;;;4.50;63.60;;;;;;5076378;28;20052;-70
2023/01/30 05:39:16;;;;;;;6.47;4.68;;;4.50;63.70;;;;;;5075903;28;20035;-70
2023/01/30 05:41:42;;;;;;;5.60;4.00;;;4.50;63.60;;;;;;5074610;28;20035;-69
2023/01/30 05:44:08;;;;;;;5.78;4.32;;;4.50;63.60;;;;;;5075462;28;20025;-70
2023/01/30 05:46:33;;;;;;;6.18;4.28;;;4.50;63.60;;;;;;5074920;28;20050;-70
2023/01/30 05:48:59;;;;;;;4.60;3.95;;;4.50;63.60;;;;;;5074753;28;20020;-68
2023/01/30 05:51:26;;;;;;;5.45;4.22;;;4.50;63.60;;;;;;5074126;28;20074;-70
2023/01/30 05:53:52;;;;;;;6.32;4.78;;;4.50;63.60;;;;;;5076089;28;20037;-70
2023/01/30 05:56:18;;;;;;;5.45;4.18;;;4.50;63.60;;;;;;5074308;28;20028;-71
2023/01/30 05:58:53;;;;;;;5.72;4.43;;;4.50;63.60;;;;;;5075478;28;20036;-69
2023/01/30 06:01:19;;;;;;;6.32;4.55;;;4.60;63.70;;;;;;5074542;28;20029;-70
2023/01/30 06:03:45;;;;;;;5.68;4.38;;;4.50;63.50;;;;;;5074946;28;20082;-69
2023/01/30 06:06:11;;;;;;;5.90;4.45;;;4.50;63.50;;;;;;5075633;28;20442;-71
2023/01/30 06:08:37;;;;;;;5.82;4.70;;;4.60;63.60;;;;;;5075907;28;20075;-70
2023/01/30 08:14:04;;;;;;;5.50;4.50;;;4.00;62.60;;;;;;5154538;22;1273076;-71
2023/01/30 08:16:31;;;;;;;6.03;4.78;;;4.00;62.60;;;;;;5072319;28;20032;-71
2023/01/30 08:18:57;;;;;;;5.57;4.35;;;4.00;63.20;;;;;;5072533;28;20051;-74
2023/01/30 08:21:23;;;;;;;5.25;3.90;;;4.10;63.70;;;;;;5072537;28;20047;-73
2023/01/30 08:23:49;;;;;;;4.60;3.97;;;4.20;64.10;;;;;;5090670;28;20381;-72
2023/01/30 08:26:15;;;;;;;5.07;3.92;;;4.30;64.80;;;;;;5072802;28;20027;-72
2023/01/30 08:28:41;;;;;;;4.63;3.85;;;4.50;65.20;;;;;;5091353;28;20381;-69
2023/01/30 08:31:12;;;;;;;5.38;4.13;;;4.60;65.10;;;;;;5071877;28;20389;-69
2023/01/30 08:33:37;;;;;;;5.00;4.10;;;4.70;65.10;;;;;;5088676;28;20113;-68
2023/01/30 08:36:04;;;;;;;4.38;3.78;;;4.90;65.10;;;;;;5072247;28;20086;-76
2023/01/30 08:38:29;;;;;;;5.10;3.92;;;4.90;65.00;;;;;;5089895;28;20590;-70
2023/01/30 08:40:56;;;;;;;4.68;3.70;;;5.00;64.90;;;;;;5090621;28;20046;-69
2023/01/30 08:43:22;;;;;;;4.82;3.78;;;5.10;64.80;;;;;;5090749;28;20032;-70
2023/01/30 08:45:48;;;;;;;4.78;3.95;;;5.20;64.70;;;;;;5072326;28;20428;-70
2023/01/30 08:48:14;;;;;;;4.72;3.83;;;5.20;64.60;;;;;;5090345;28;20028;-70
2023/01/30 08:50:39;;;;;;;4.13;3.55;;;5.30;64.60;;;;;;5072282;28;20029;-70
2023/01/30 08:53:07;;;;;;;4.05;3.47;;;5.30;64.50;;;;;;5072020;28;20028;-70
2023/01/30 08:55:33;;;;;;;4.75;3.80;;;5.40;64.50;;;;;;5072513;28;20135;-69
2023/01/30 08:57:59;;;;;;;4.78;3.95;;;5.40;64.30;;;;;;5072673;28;20385;-70
2023/01/30 09:00:26;;;;;;;4.50;3.60;;;5.50;64.30;;;;;;5090771;28;20032;-69
2023/01/30 09:02:56;;;;;;;5.25;4.00;;;5.50;64.10;;;;;;5090442;28;20032;-72
2023/01/30 09:05:23;;;;;;;3.97;3.55;;;5.60;64.10;;;;;;5090089;28;20074;-70
2023/01/30 09:07:49;;;;;;;4.57;3.85;;;5.60;64.00;;;;;;5072144;28;20027;-69
2023/01/30 09:10:15;;;;;;;5.20;3.90;;;5.60;63.90;;;;;;5072062;28;20027;-70
2023/01/30 09:12:41;;;;;;;5.50;3.85;;;5.70;63.90;;;;;;5085956;28;20077;-69
2023/01/30 09:15:07;;;;;;;4.40;3.60;;;5.70;63.80;;;;;;5069896;28;20037;-69
2023/01/30 09:17:33;;;;;;;4.30;3.80;;;5.70;63.70;;;;;;5069863;28;20029;-68
2023/01/30 09:19:59;;;;;;;4.30;3.70;;;5.80;63.70;;;;;;5051797;28;20351;-71
2023/01/30 09:22:24;;;;;;;5.03;4.35;;;5.80;63.60;;;;;;5051825;28;20028;-70
2023/01/30 09:24:50;;;;;;;5.70;4.20;;;5.80;63.40;;;;;;5042295;28;20382;-71
2023/01/30 09:27:15;;;;;;;4.82;3.75;;;5.90;63.40;;;;;;5038763;28;20028;-73
2023/01/30 09:29:41;;;;;;;4.22;3.63;;;5.90;63.40;;;;;;5056330;28;20029;-70
2023/01/30 09:32:07;;;;;;;4.53;3.85;;;5.90;63.30;;;;;;5038627;28;20071;-71
2023/01/30 09:34:32;;;;;;;6.30;3.63;;;5.90;63.30;;;;;;5056061;28;20064;-70
2023/01/30 09:37:02;;;;;;;4.28;3.65;;;5.90;63.20;;;;;;5038175;28;20073;-70
2023/01/30 09:39:28;;;;;;;4.93;4.22;;;6.00;63.20;;;;;;5037735;28;20025;-70
2023/01/30 09:42:31;;;;;;;5.30;3.70;;;6.00;63.10;;;;;;5037993;28;20367;-69
2023/01/30 09:45:03;;;;;;;4.60;3.80;;;6.00;63.00;;;;;;5055347;28;20079;-70
2023/01/30 09:47:50;;;;;;;4.88;3.78;;;6.10;63.00;;;;;;5056345;28;20028;-67
2023/01/30 09:50:21;;;;;;;4.30;3.67;;;6.10;62.90;;;;;;5037724;28;20477;-69
2023/01/30 09:53:43;;;;;;;4.82;3.95;;;6.10;62.80;;;;;;5037731;28;20033;-68
2023/01/30 09:56:09;;;;;;;4.78;4.20;;;6.10;62.60;;;;;;4967923;28;20547;-69
2023/01/30 09:58:57;;;;;;;4.93;3.97;;;6.10;62.70;;;;;;5037976;28;20029;-69
2023/01/30 10:01:29;;;;;;;3.70;3.22;;;6.20;62.60;;;;;;5055514;28;20035;-69
2023/01/30 10:04:27;;;;;;;4.53;3.80;;;6.20;62.60;;;;;;5055743;28;20051;-69
2023/01/30 10:07:01;;;;;;;4.68;4.00;;;6.30;62.50;;;;;;5055806;28;20021;-69
2023/01/30 10:09:41;;;;;;;4.35;3.53;;;6.30;62.50;;;;;;5055609;28;20032;-67
2023/01/30 10:12:49;;;;;;;4.53;3.75;;;6.30;62.40;;;;;;5055536;28;20140;-68
2023/01/30 10:15:34;;;;;;;4.20;3.40;;;6.40;62.30;;;;;;5055869;28;20051;-69
2023/01/30 10:18:23;;;;;;;;;;;6.40;62.30;;;;;;5038144;28;20390;-69
2023/01/30 10:21:19;;;;;;;3.88;3.38;;;6.40;61.80;;;;;;5055800;28;19905;-68
2023/01/30 10:24:03;;;;;;;4.45;3.60;;;6.40;62.00;;;;;;5055718;28;20025;-68
2023/01/30 10:26:30;;;;;;;4.65;3.95;;;6.50;62.00;;;;;;5055334;28;20028;-68
2023/01/30 10:29:25;;;;;;;4.53;3.95;;;6.50;62.00;;;;;;5054940;28;20471;-68
2023/01/30 10:31:57;;;;;;;4.53;3.55;;;6.50;62.00;;;;;;5020359;28;20108;-69
2023/01/30 10:34:40;;;;;;;4.00;3.58;;;6.50;62.00;;;;;;5055339;28;20178;-68
2023/01/30 10:37:15;;;;;;;5.53;3.80;;;6.50;61.90;;;;;;5036132;28;20040;-68
2023/01/30 10:40:10;;;;;;;4.63;4.15;;;6.50;61.90;;;;;;5037259;28;20040;-68
2023/01/30 10:42:51;;;;;;;4.50;3.63;;;6.50;61.80;;;;;;5037407;28;20382;-68
2023/01/30 10:45:21;;;;;;;5.80;4.40;;;6.50;61.80;;;;;;5037141;28;20120;-69
2023/01/30 10:48:02;;;;;;;4.10;3.63;;;6.60;61.80;;;;;;5036949;28;20128;-68
2023/01/30 10:50:50;;;;;;;4.78;4.03;;;6.60;61.80;;;;;;5037505;28;20021;-69
2023/01/30 10:53:25;;;;;;;3.67;3.30;;;6.60;61.70;;;;;;5054535;28;20375;-69
2023/01/30 10:55:59;;;;;;;5.22;4.40;;;6.60;61.70;;;;;;5055017;28;20044;-69
2023/01/30 10:58:52;;;;;;;4.33;3.83;;;6.60;61.70;;;;;;5054836;28;20108;-68
2023/01/30 11:01:55;;;;;;;4.65;3.83;;;6.70;61.50;;;;;;5036938;28;20029;-68
2023/01/30 11:04:23;;;;;;;4.70;3.85;;;6.70;61.60;;;;;;4983212;28;20039;-69
2023/01/30 11:06:51;;;;;;;4.85;3.75;;;6.70;61.60;;;;;;5054981;28;20029;-68
2023/01/30 11:09:17;;;;;;;4.35;3.78;;;6.70;61.50;;;;;;5054280;28;20017;-69
2023/01/30 11:11:45;;;;;;;4.57;3.70;;;6.70;61.50;;;;;;5036537;28;20074;-68
2023/01/30 11:14:11;;;;;;;5.10;3.70;;;6.70;61.40;;;;;;5054636;28;20106;-68
2023/01/30 11:16:50;;;;;;;4.60;3.50;;;6.70;61.40;;;;;;5036139;28;20159;-69
2023/01/30 11:19:23;;;;;;;4.72;4.10;;;6.70;61.40;;;;;;5036948;28;20029;-68
2023/01/30 11:21:54;;;;;;;4.38;3.42;;;6.70;61.30;;;;;;5036821;28;20477;-69
2023/01/30 11:24:27;;;;;;;4.50;3.80;;;6.70;61.30;;;;;;5035498;28;20060;-68
2023/01/30 11:26:54;;;;;;;4.43;3.72;;;6.70;61.30;;;;;;5035722;28;20028;-68
2023/01/30 11:29:20;;;;;;;4.85;3.70;;;6.70;61.30;;;;;;5054384;28;20378;-68
2023/01/30 11:31:49;;;;;;;4.65;3.70;;;6.70;61.30;;;;;;5054192;28;20025;-69
2023/01/30 11:34:16;;;;;;;4.35;3.60;;;6.70;61.80;;;;;;5036420;28;20087;-68
2023/01/30 11:36:42;;;;;;;4.85;3.83;;;6.70;61.30;;;;;;5053930;28;20032;-68
2023/01/30 11:39:11;;;;;;;4.60;3.83;;;6.70;61.20;;;;;;5053882;28;20111;-70
2023/01/30 11:41:43;;;;;;;4.88;3.90;;;6.70;61.30;;;;;;5035800;28;20025;-68
2023/01/30 11:44:10;;;;;;;4.97;3.60;;;6.70;61.20;;;;;;5036140;28;20124;-67
2023/01/30 11:46:39;;;;;;;4.85;4.00;;;6.60;61.20;;;;;;5036126;28;20474;-68
2023/01/30 11:49:14;;;;;;;4.20;3.67;;;6.70;61.20;;;;;;5036058;28;20025;-69
2023/01/30 11:51:43;;;;;;;6.07;4.75;;;6.60;61.20;;;;;;5035801;28;20360;-69
2023/01/30 11:54:17;;;;;;;4.38;3.60;;;6.60;61.20;;;;;;5053430;28;20037;-69
2023/01/30 11:56:52;;;;;;;4.72;3.95;;;6.60;61.10;;;;;;5036025;28;20052;-68
2023/01/30 11:59:37;;;;;;;4.97;3.85;;;6.60;61.20;;;;;;5053740;28;20512;-68
2023/01/30 12:02:29;;;;;;;5.15;4.15;;;6.60;61.10;;;;;;5035824;28;20041;-68
2023/01/30 12:05:00;;;;;;;5.07;4.07;;;6.50;61.00;;;;;;5053479;28;20029;-69
2023/01/30 12:07:28;;;;;;;4.57;3.90;;;6.50;61.10;;;;;;5036405;28;20428;-69
2023/01/30 12:09:56;;;;;;;5.25;4.07;;;6.50;61.10;;;;;;5035793;28;20025;-69
2023/01/30 20:07:03;;;;;;;5.53;4.95;;;3.80;63.20;;;;;;5194215;22;1418845;-66
2023/01/30 20:09:29;;;;;;;5.68;5.07;;;3.80;62.90;;;;;;5127702;28;20036;-67
2023/01/30 20:11:54;;;;;;;7.57;5.15;;;3.80;63.70;;;;;;5100976;28;20525;-67
2023/01/30 20:14:20;;;;;;;6.15;4.60;;;3.80;64.10;;;;;;5121290;28;20065;-67
2023/01/30 20:16:46;;;;;;;6.00;4.75;;;3.90;64.50;;;;;;5119842;28;20425;-67
2023/01/30 20:19:14;;;;;;;6.93;5.28;;;4.00;64.80;;;;;;5127754;28;20476;-67
2023/01/30 20:21:40;;;;;;;6.30;4.78;;;4.10;64.90;;;;;;5113092;28;20055;-66
2023/01/30 20:24:07;;;;;;;5.63;4.57;;;4.10;65.00;;;;;;5131851;28;20031;-66
2023/01/30 20:26:35;;;;;;;6.47;4.80;;;4.30;65.10;;;;;;5113167;28;20476;-67
2023/01/30 20:29:02;;;;;;;6.32;4.95;;;4.30;65.10;;;;;;5112987;28;20051;-67
2023/01/30 20:31:29;;;;;;;5.68;4.75;;;4.40;65.00;;;;;;5113038;28;20031;-65
2023/01/30 20:33:56;;;;;;;6.75;4.80;;;4.40;65.00;;;;;;5131137;28;20744;-65
2023/01/30 20:36:25;;;;;;;5.30;4.38;;;4.50;65.00;;;;;;5127332;28;20070;-66
2023/01/30 20:38:52;;;;;;;5.18;4.40;;;4.50;64.90;;;;;;5119274;28;20055;-66
2023/01/30 20:41:22;;;;;;;5.53;4.90;;;4.60;64.90;;;;;;5120782;28;20023;-66
2023/01/30 20:43:50;;;;;;;5.15;4.10;;;4.60;64.80;;;;;;5101545;28;20103;-66
2023/01/30 20:46:17;;;;;;;5.15;4.22;;;4.70;64.80;;;;;;5100099;28;20024;-66
2023/01/30 20:48:44;;;;;;;6.00;4.28;;;4.70;64.70;;;;;;5120336;28;20028;-64
2023/01/30 20:51:15;;;;;;;4.82;4.15;;;4.70;64.70;;;;;;5129629;28;20047;-65
2023/01/30 20:53:49;;;;;;;5.35;4.50;;;4.80;64.60;;;;;;5112754;28;20095;-66
2023/01/30 20:56:14;;;;;;;5.53;4.22;;;4.80;64.50;;;;;;5112927;28;20027;-65
2023/01/30 20:58:40;;;;;;;4.82;4.18;;;4.80;64.40;;;;;;5112496;28;20395;-65
2023/01/30 21:01:14;;;;;;;5.80;4.50;;;4.80;64.40;;;;;;5124708;28;20475;-66
2023/01/30 21:03:40;;;;;;;4.90;4.28;;;4.90;64.40;;;;;;5120270;28;20380;-66
2023/01/30 21:06:06;;;;;;;5.28;4.22;;;4.90;64.30;;;;;;5099164;28;20490;-66
2023/01/30 21:08:33;;;;;;;6.30;4.90;;;4.90;64.30;;;;;;5109105;28;20130;-66
2023/01/30 21:11:11;;;;;;;5.57;4.45;;;4.90;64.20;;;;;;5107509;28;20044;-67
2023/01/30 21:13:37;;;;;;;4.95;4.40;;;4.90;64.20;;;;;;5106650;28;20016;-66
2023/01/30 21:16:12;;;;;;;5.43;4.07;;;4.90;64.10;;;;;;5107624;28;20058;-66
2023/01/30 21:18:40;;;;;;;5.82;4.78;;;4.90;64.10;;;;;;5095805;28;20583;-65
2023/01/30 21:21:08;;;;;;;5.55;4.28;;;4.90;64.00;;;;;;5096031;28;20423;-66
2023/01/30 21:23:35;;;;;;;5.25;4.40;;;4.90;64.00;;;;;;5095071;28;20074;-65
2023/01/30 21:26:05;;;;;;;6.05;4.35;;;5.00;64.00;;;;;;5096875;28;20424;-65
2023/01/30 21:28:31;;;;;;;4.63;4.00;;;4.90;64.00;;;;;;5096749;28;20024;-65
2023/01/30 21:31:27;;;;;;;5.65;4.53;;;5.00;63.90;;;;;;5096650;28;20024;-65
2023/01/30 21:33:56;;;;;;;5.80;4.85;;;5.00;63.90;;;;;;5094643;28;20472;-66
2023/01/30 21:36:22;;;;;;;5.70;4.38;;;5.00;63.90;;;;;;5096305;28;20032;-66
2023/01/30 21:44:27;;;;;;;5.15;4.13;;;4.90;63.70;;;;;;5096266;28;20035;-66
2023/01/30 21:46:53;;;;;;;5.65;4.72;;;4.90;63.70;;;;;;5095139;28;20040;-65
2023/01/30 21:49:19;;;;;;;5.80;4.40;;;5.00;63.70;;;;;;5095199;28;20032;-66
2023/01/30 21:51:46;;;;;;;7.93;4.72;;;5.00;63.70;;;;;;5095984;28;20020;-65
2023/01/30 21:54:14;;;;;;;5.57;4.20;;;5.00;63.70;;;;;;5095898;28;20031;-65
2023/01/30 21:56:40;;;;;;;5.43;4.28;;;4.90;63.60;;;;;;5094597;28;20035;-64
2023/01/30 21:59:06;;;;;;;5.43;4.30;;;4.90;63.60;;;;;;5094426;28;20028;-65
2023/01/30 22:01:34;;;;;;;5.30;4.40;;;4.90;63.60;;;;;;5094486;28;20115;-65
2023/01/30 22:04:00;;;;;;;5.57;4.53;;;4.90;63.60;;;;;;5094459;28;20032;-65
2023/01/30 22:06:26;;;;;;;6.00;4.45;;;4.90;63.60;;;;;;5093926;28;20056;-64
2023/01/30 22:09:01;;;;;;;5.50;4.63;;;4.90;63.60;;;;;;5095732;28;20036;-65
2023/01/30 22:11:28;;;;;;;6.13;4.53;;;4.90;63.50;;;;;;5094271;28;20052;-65
2023/01/30 22:13:54;;;;;;;5.45;4.70;;;4.90;63.50;;;;;;5094856;28;20036;-65
2023/01/30 22:16:25;;;;;;;6.18;4.65;;;4.90;63.50;;;;;;5095726;28;20028;-64
2023/01/30 22:18:56;;;;;;;4.88;4.25;;;4.90;63.50;;;;;;5094042;28;20066;-65
2023/01/30 22:21:24;;;;;;;4.75;4.22;;;5.00;63.60;;;;;;5095527;28;20052;-65
2023/01/30 22:23:52;;;;;;;5.13;4.22;;;4.90;63.50;;;;;;5095410;28;20028;-65
2023/01/30 22:26:19;;;;;;;5.57;4.53;;;4.90;63.40;;;;;;5093763;28;20028;-65
2023/01/30 22:28:45;;;;;;;5.57;4.63;;;4.90;63.40;;;;;;5093937;28;20024;-65
2023/01/30 22:31:17;;;;;;;5.63;4.50;;;4.90;63.50;;;;;;5093961;28;20027;-64
2023/01/30 22:33:50;;;;;;;6.20;4.45;;;4.90;63.40;;;;;;5093175;28;20416;-65
2023/01/30 22:36:16;;;;;;;6.10;4.88;;;4.90;63.40;;;;;;5093843;28;20127;-65
2023/01/30 22:38:44;;;;;;;4.97;4.28;;;4.90;63.40;;;;;;5094825;28;20428;-65
2023/01/30 22:41:13;;;;;;;5.60;4.55;;;4.90;63.40;;;;;;5093613;28;20056;-65
2023/01/30 22:43:42;;;;;;;5.95;4.45;;;4.90;63.40;;;;;;5095138;28;20024;-65
2023/01/30 22:46:09;;;;;;;5.88;4.63;;;4.90;63.40;;;;;;5094902;28;20032;-65
2023/01/30 22:48:35;;;;;;;5.53;4.53;;;4.90;63.40;;;;;;5094795;28;20024;-64
2023/01/30 22:51:05;;;;;;;5.85;4.72;;;4.90;63.40;;;;;;5094958;28;20052;-65
2023/01/30 22:53:33;;;;;;;5.57;4.28;;;4.90;63.40;;;;;;5093617;28;20066;-65
2023/01/30 22:56:00;;;;;;;5.60;4.38;;;4.90;63.40;;;;;;5093483;28;20484;-65
2023/01/30 22:58:26;;;;;;;6.00;4.60;;;4.90;63.40;;;;;;5094518;28;20024;-65
2023/01/30 23:00:52;;;;;;;5.30;4.60;;;4.90;63.40;;;;;;5094584;28;20099;-65
2023/01/30 23:03:17;;;;;;;6.10;4.43;;;4.90;63.30;;;;;;5094665;28;20024;-64
2023/01/30 23:05:43;;;;;;;5.75;4.60;;;4.90;63.30;;;;;;5094397;28;20036;-65
2023/01/30 23:08:08;;;;;;;5.88;4.93;;;4.90;63.40;;;;;;5094735;28;20445;-65
2023/01/30 23:10:38;;;;;;;6.15;4.70;;;4.90;63.30;;;;;;5093396;28;20026;-65
2023/01/30 23:13:07;;;;;;;6.43;4.85;;;4.90;63.30;;;;;;5094663;28;20043;-64
2023/01/30 23:15:36;;;;;;;5.70;4.57;;;4.80;63.30;;;;;;5094568;28;20039;-64
2023/01/30 23:20:46;;;;;;;5.63;4.50;;;4.80;63.20;;;;;;5094560;28;20077;-64
2023/01/30 23:23:12;;;;;;;5.05;4.28;;;4.80;63.20;;;;;;5094757;28;20028;-64
2023/01/30 23:25:41;;;;;;;4.93;4.10;;;4.80;63.30;;;;;;5094649;28;20504;-64
2023/01/30 23:28:07;;;;;;;6.18;4.78;;;4.80;63.30;;;;;;5093106;28;20063;-65